0A8 weather

Bibb County Airport
Centreville, Alabama, United States

Public forecast

Using degrees Fahrenheit for public forecast. Weather courtesy of forecast.io.

Closest aviation weather report (METAR) to Bibb County Airport

Closest report is Shelby County Airport, 21.1 nm (39.1 km) NE. Retrieved 2020/02/22 21:53 UTC (50 minutes ago):

KEET 222153Z AUTO 00000KT 10SM CLR 13/M03 A3035 RMK AO2 SLP277 T01331028

Closest aviation forecast (TAF) to Bibb County Airport

Closest forecast is Shelby County Airport, 21.1 nm (39.1 km) NE. Retrieved 2020/02/22 18:22 UTC (4 hours ago):

TAF KEET 221720Z 2218/2318 19004KT P6SM FEW250 FM230000 00000KT P6SM SCT250 FM231500 18005KT P6SM BKN150